Time;durP1;ratioP1;P1;durP2;ratioP2;P2;SDS_P1;SDS_P2;PMS_P1;PMS_P2;Temp;Humidity;BMP_temperature;BMP_pressure;BME280_temperature;BME280_humidity;BME280_pressure;Samples;Min_cycle;Max_cycle;Signal;HPM_P1;HPM_P2
2021/10/02 00:34:11;;;;;;;9.40;4.57;;;;;;;;;;5034642;28;20056;-91
2021/10/02 00:44:40;;;;;;;11.48;5.03;;;;;;;;;;5035735;28;20032;-90
2021/10/02 00:47:06;;;;;;;8.55;4.18;;;;;;;;;;5015514;28;20025;-90
2021/10/02 00:49:31;;;;;;;14.38;4.55;;;;;;;;;;5016230;28;20071;-90
2021/10/02 00:51:57;;;;;;;7.63;4.50;;;;;;;;;;5015256;28;20040;-90
2021/10/02 00:54:22;;;;;;;7.13;4.78;;;;;;;;;;5015673;28;20036;-90
2021/10/02 00:56:48;;;;;;;9.65;5.95;;;;;;;;;;5033163;28;20481;-89
2021/10/02 00:59:13;;;;;;;6.45;5.07;;;;;;;;;;5015234;28;20049;-90
2021/10/02 01:01:42;;;;;;;7.72;5.68;;;;;;;;;;5036685;28;20091;-90
2021/10/02 01:04:16;;;;;;;11.50;6.30;;;;;;;;;;5016716;28;20022;-89
2021/10/02 01:07:01;;;;;;;7.25;6.32;;;;;;;;;;5015492;28;20056;-90
2021/10/02 01:09:36;;;;;;;12.80;7.53;;;;;;;;;;5015334;28;20033;-90
2021/10/02 01:12:04;;;;;;;14.30;8.20;;;;;;;;;;5016082;28;20026;-90
2021/10/02 01:14:29;;;;;;;16.17;8.25;;;;;;;;;;5033100;28;20517;-90
2021/10/02 01:16:58;;;;;;;13.67;8.20;;;;;;;;;;5015057;28;20073;-90
2021/10/02 01:19:34;;;;;;;9.73;7.88;;;;;;;;;;5015260;28;20088;-91
2021/10/02 01:22:18;;;;;;;15.27;8.82;;;;;;;;;;5034577;28;20044;-90
2021/10/02 01:24:43;;;;;;;20.70;11.30;;;;;;;;;;5015329;28;20030;-90
2021/10/02 01:27:33;;;;;;;15.50;9.48;;;;;;;;;;5014856;28;20487;-90
2021/10/02 01:30:02;;;;;;;14.65;9.70;;;;;;;;;;5015006;28;20036;-89
2021/10/02 01:32:36;;;;;;;14.68;10.27;;;;;;;;;;5015404;28;20476;-90
2021/10/02 01:37:59;;;;;;;13.05;9.02;;;;;;;;;;5032551;28;20033;-90
2021/10/02 01:48:43;;;;;;;17.90;11.70;;;;;;;;;;5032791;28;20108;-91
2021/10/02 01:51:10;;;;;;;17.17;11.15;;;;;;;;;;5014951;28;20102;-91
2021/10/02 01:53:37;;;;;;;16.75;12.40;;;;;;;;;;5030883;28;20029;-91
2021/10/02 01:56:07;;;;;;;21.63;13.93;;;;;;;;;;5019591;28;20121;-91
2021/10/02 01:58:32;;;;;;;16.05;12.65;;;;;;;;;;5031474;28;20030;-90
2021/10/02 02:00:58;;;;;;;22.55;14.73;;;;;;;;;;5014273;28;20026;-91
2021/10/02 02:03:24;;;;;;;17.33;15.07;;;;;;;;;;5014215;28;20417;-91
2021/10/02 02:05:50;;;;;;;16.80;12.15;;;;;;;;;;5014314;28;20017;-90
2021/10/02 02:08:18;;;;;;;20.15;16.33;;;;;;;;;;5014270;28;20031;-90
2021/10/02 02:10:44;;;;;;;25.20;18.33;;;;;;;;;;5014175;28;20045;-90
2021/10/02 02:13:11;;;;;;;15.75;13.18;;;;;;;;;;5018464;28;20017;-89
2021/10/02 02:15:37;;;;;;;24.38;17.27;;;;;;;;;;5032582;28;20022;-90
2021/10/02 02:18:07;;;;;;;28.52;18.45;;;;;;;;;;5014694;28;20021;-90
2021/10/02 02:20:39;;;;;;;28.55;18.50;;;;;;;;;;5013769;28;20037;-90
2021/10/02 02:23:04;;;;;;;30.83;20.05;;;;;;;;;;5030217;28;20029;-90
2021/10/02 02:25:29;;;;;;;22.10;16.58;;;;;;;;;;5031772;28;20026;-90
2021/10/02 02:27:55;;;;;;;31.05;21.48;;;;;;;;;;5032026;28;20026;-90
2021/10/02 02:30:21;;;;;;;31.52;20.05;;;;;;;;;;5036281;28;20026;-90
2021/10/02 02:32:46;;;;;;;32.95;21.63;;;;;;;;;;5031281;28;20812;-90
2021/10/02 02:35:12;;;;;;;33.95;19.75;;;;;;;;;;5032746;28;20033;-91
2021/10/02 02:37:38;;;;;;;22.45;16.52;;;;;;;;;;5030525;28;20031;-90
2021/10/02 02:40:05;;;;;;;36.38;22.77;;;;;;;;;;5014469;28;20060;-91
2021/10/02 02:42:30;;;;;;;24.90;17.65;;;;;;;;;;5032184;28;20032;-90
2021/10/02 02:44:55;;;;;;;25.38;18.67;;;;;;;;;;5014092;28;20017;-91
2021/10/02 02:47:22;;;;;;;27.20;19.52;;;;;;;;;;5018458;28;20056;-91
2021/10/02 02:49:51;;;;;;;27.58;19.15;;;;;;;;;;5013925;28;20037;-89
2021/10/02 02:52:20;;;;;;;30.02;21.50;;;;;;;;;;5014168;28;20031;-90
2021/10/02 02:55:08;;;;;;;28.95;18.48;;;;;;;;;;5013948;28;20025;-89
2021/10/02 02:57:53;;;;;;;31.33;20.73;;;;;;;;;;5013613;28;20112;-90
2021/10/02 03:00:20;;;;;;;31.70;21.35;;;;;;;;;;5013465;28;20025;-89
2021/10/02 03:02:50;;;;;;;33.22;22.48;;;;;;;;;;5013638;28;20079;-90
2021/10/02 03:05:16;;;;;;;26.30;19.58;;;;;;;;;;5013844;28;20113;-89
2021/10/02 03:07:46;;;;;;;36.22;21.92;;;;;;;;;;5016422;28;20052;-89
2021/10/02 03:10:12;;;;;;;32.00;21.70;;;;;;;;;;5030625;28;20056;-90
2021/10/02 03:12:41;;;;;;;28.17;21.40;;;;;;;;;;5029846;28;20021;-89
2021/10/02 03:15:08;;;;;;;34.25;23.80;;;;;;;;;;5031116;28;20492;-90
2021/10/02 03:17:36;;;;;;;33.58;24.85;;;;;;;;;;5031105;28;20033;-91
2021/10/02 03:20:02;;;;;;;34.60;24.02;;;;;;;;;;5013385;28;20029;-91
2021/10/02 03:22:28;;;;;;;30.38;22.63;;;;;;;;;;5013527;28;20021;-91
2021/10/02 03:24:54;;;;;;;34.80;25.58;;;;;;;;;;5035119;28;20077;-91
2021/10/02 03:27:20;;;;;;;37.95;27.08;;;;;;;;;;5031517;28;20512;-91
2021/10/02 03:29:46;;;;;;;31.05;25.13;;;;;;;;;;5031622;28;20497;-90
2021/10/02 03:32:12;;;;;;;34.08;25.42;;;;;;;;;;5013235;28;20026;-89
2021/10/02 03:34:38;;;;;;;39.13;28.35;;;;;;;;;;5013763;28;20096;-90
2021/10/02 03:37:03;;;;;;;43.05;29.02;;;;;;;;;;5031258;28;20390;-90
2021/10/02 03:39:29;;;;;;;43.38;31.20;;;;;;;;;;5013232;28;20029;-90
2021/10/02 03:42:06;;;;;;;38.83;26.95;;;;;;;;;;5029616;28;20022;-90
2021/10/02 03:44:32;;;;;;;43.20;28.85;;;;;;;;;;5034890;28;20437;-90
2021/10/02 03:46:57;;;;;;;39.92;27.90;;;;;;;;;;5013236;28;20057;-90
2021/10/02 03:49:22;;;;;;;37.97;25.97;;;;;;;;;;5029915;28;20036;-89
2021/10/02 03:51:47;;;;;;;40.57;29.00;;;;;;;;;;5013091;28;20264;-90
2021/10/02 03:54:12;;;;;;;37.60;28.20;;;;;;;;;;5031069;28;20272;-90
2021/10/02 03:56:38;;;;;;;38.72;26.02;;;;;;;;;;5012582;28;20112;-90
2021/10/02 03:59:03;;;;;;;42.60;26.90;;;;;;;;;;5012843;28;20029;-90
2021/10/02 04:01:28;;;;;;;46.38;32.88;;;;;;;;;;5013177;28;20298;-90
2021/10/02 04:03:54;;;;;;;36.17;28.23;;;;;;;;;;5015873;28;20045;-89
2021/10/02 04:06:19;;;;;;;46.97;32.15;;;;;;;;;;5029409;28;20029;-90
2021/10/02 04:08:45;;;;;;;46.28;31.63;;;;;;;;;;5013180;28;20029;-89
2021/10/02 04:11:12;;;;;;;47.22;32.30;;;;;;;;;;5030688;28;20114;-90
2021/10/02 04:13:38;;;;;;;40.80;30.08;;;;;;;;;;5030630;28;20026;-90
2021/10/02 04:16:03;;;;;;;36.88;28.30;;;;;;;;;;5012964;28;20028;-90
2021/10/02 04:18:29;;;;;;;42.13;32.15;;;;;;;;;;5013116;28;20052;-90
2021/10/02 04:20:54;;;;;;;40.38;30.55;;;;;;;;;;5012935;28;20539;-90
2021/10/02 04:23:19;;;;;;;52.65;32.92;;;;;;;;;;5018178;28;20029;-90
2021/10/02 04:25:45;;;;;;;49.25;32.47;;;;;;;;;;5017667;28;20025;-90
2021/10/02 04:28:10;;;;;;;33.65;28.10;;;;;;;;;;5016339;28;20026;-90
2021/10/02 04:30:35;;;;;;;52.78;35.55;;;;;;;;;;5016054;28;20511;-90
2021/10/02 04:33:01;;;;;;;39.97;29.38;;;;;;;;;;5016726;28;20025;-89
2021/10/02 04:35:26;;;;;;;33.17;27.52;;;;;;;;;;5016200;28;20116;-90
2021/10/02 04:37:51;;;;;;;39.33;29.33;;;;;;;;;;5033622;28;20025;-90
2021/10/02 04:40:16;;;;;;;40.63;31.70;;;;;;;;;;5016229;28;20049;-90
2021/10/02 04:42:42;;;;;;;51.20;35.28;;;;;;;;;;5035694;28;20466;-90
2021/10/02 04:45:07;;;;;;;49.08;37.13;;;;;;;;;;5015921;28;20017;-90
2021/10/02 04:47:35;;;;;;;44.58;31.77;;;;;;;;;;5033612;28;20508;-90
2021/10/02 04:50:01;;;;;;;43.38;32.75;;;;;;;;;;5016191;28;20028;-90
2021/10/02 04:52:26;;;;;;;53.80;36.15;;;;;;;;;;5017398;28;20029;-90
2021/10/02 04:54:51;;;;;;;45.17;33.70;;;;;;;;;;5033567;28;20029;-90
2021/10/02 04:57:17;;;;;;;40.83;32.27;;;;;;;;;;5016232;28;20033;-91
2021/10/02 04:59:42;;;;;;;37.67;30.98;;;;;;;;;;5015885;28;20280;-91
2021/10/02 05:02:08;;;;;;;62.88;38.80;;;;;;;;;;5020075;28;20075;-90
2021/10/02 05:04:33;;;;;;;41.25;31.75;;;;;;;;;;5033520;28;20428;-90
2021/10/02 05:06:58;;;;;;;47.97;34.72;;;;;;;;;;5015800;28;20026;-90
2021/10/02 05:09:23;;;;;;;51.60;34.88;;;;;;;;;;5015926;28;20566;-90
2021/10/02 05:11:49;;;;;;;53.40;35.90;;;;;;;;;;5015494;28;20029;-90
2021/10/02 05:14:16;;;;;;;44.25;34.50;;;;;;;;;;5017805;28;20472;-90
2021/10/02 05:16:42;;;;;;;33.85;29.45;;;;;;;;;;5033558;28;20017;-90
2021/10/02 05:19:09;;;;;;;49.67;35.65;;;;;;;;;;5015943;28;20123;-91
2021/10/02 05:21:34;;;;;;;50.45;36.10;;;;;;;;;;5017741;28;20069;-91
2021/10/02 05:24:00;;;;;;;44.92;32.58;;;;;;;;;;5015797;28;20457;-90
2021/10/02 05:26:25;;;;;;;52.63;36.90;;;;;;;;;;5033646;28;20018;-90
2021/10/02 05:28:50;;;;;;;41.03;32.58;;;;;;;;;;5015865;28;20264;-90
2021/10/02 05:31:17;;;;;;;46.55;34.25;;;;;;;;;;5015771;28;20560;-90
2021/10/02 05:33:42;;;;;;;34.25;28.98;;;;;;;;;;5015346;28;20108;-91
2021/10/02 05:36:07;;;;;;;38.17;30.73;;;;;;;;;;5017861;28;20049;-90
2021/10/02 05:38:33;;;;;;;43.92;33.60;;;;;;;;;;5015301;28;20813;-90
2021/10/02 05:40:58;;;;;;;54.60;37.38;;;;;;;;;;5015447;28;20469;-90
2021/10/02 05:43:23;;;;;;;38.25;30.08;;;;;;;;;;5015699;28;20397;-90
2021/10/02 05:45:49;;;;;;;43.75;32.28;;;;;;;;;;5032921;28;20029;-90
2021/10/02 05:48:14;;;;;;;44.10;31.93;;;;;;;;;;5015501;28;20025;-90
2021/10/02 05:50:39;;;;;;;48.10;35.60;;;;;;;;;;5014790;28;20260;-90
2021/10/02 05:53:04;;;;;;;42.00;32.73;;;;;;;;;;5033834;28;20017;-90
2021/10/02 05:55:30;;;;;;;41.80;33.28;;;;;;;;;;5032537;28;20290;-90
2021/10/02 05:57:55;;;;;;;37.70;30.23;;;;;;;;;;5032149;28;20021;-90
2021/10/02 06:00:20;;;;;;;47.67;33.90;;;;;;;;;;5014583;28;20377;-90
2021/10/02 06:02:45;;;;;;;48.33;35.83;;;;;;;;;;5014364;28;20256;-90
2021/10/02 06:05:11;;;;;;;50.15;36.38;;;;;;;;;;5014105;28;20043;-90
2021/10/02 06:07:36;;;;;;;52.20;35.20;;;;;;;;;;5030670;28;20021;-90
2021/10/02 06:10:01;;;;;;;47.13;36.43;;;;;;;;;;5015200;28;20152;-91
2021/10/02 06:12:26;;;;;;;57.15;40.70;;;;;;;;;;5032263;28;20280;-90
2021/10/02 06:14:52;;;;;;;50.50;37.58;;;;;;;;;;5033452;28;20508;-89
2021/10/02 06:17:17;;;;;;;44.33;34.33;;;;;;;;;;5014160;28;20373;-90
2021/10/02 06:19:43;;;;;;;53.47;37.00;;;;;;;;;;5018282;28;20029;-89
2021/10/02 06:22:08;;;;;;;51.53;38.05;;;;;;;;;;5014312;28;20268;-89
2021/10/02 06:24:34;;;;;;;57.50;39.47;;;;;;;;;;5014511;28;20075;-90
2021/10/02 06:26:59;;;;;;;50.58;35.92;;;;;;;;;;5014353;28;20302;-91
2021/10/02 06:29:25;;;;;;;43.08;32.65;;;;;;;;;;5014022;28;20060;-90
2021/10/02 06:31:50;;;;;;;50.30;34.95;;;;;;;;;;5014308;28;20025;-91
2021/10/02 06:34:15;;;;;;;40.50;33.63;;;;;;;;;;5014222;28;20026;-90
2021/10/02 06:36:43;;;;;;;40.75;31.30;;;;;;;;;;5031918;28;20033;-89
2021/10/02 06:39:08;;;;;;;42.42;33.33;;;;;;;;;;5032283;28;20112;-90
2021/10/02 06:41:33;;;;;;;39.55;33.20;;;;;;;;;;5032439;28;20096;-89
2021/10/02 06:43:59;;;;;;;35.00;28.15;;;;;;;;;;5015236;28;20071;-90
2021/10/02 06:46:24;;;;;;;36.63;31.42;;;;;;;;;;5013130;28;20029;-90
2021/10/02 06:48:49;;;;;;;41.17;33.23;;;;;;;;;;5013908;28;20072;-89
2021/10/02 06:51:14;;;;;;;36.30;29.70;;;;;;;;;;5031294;28;20300;-90
2021/10/02 06:53:40;;;;;;;33.75;29.05;;;;;;;;;;5032365;28;20608;-90
2021/10/02 06:56:05;;;;;;;42.08;31.77;;;;;;;;;;5014708;28;20112;-89
2021/10/02 06:58:31;;;;;;;36.67;29.98;;;;;;;;;;5032792;28;20034;-90
2021/10/02 07:00:56;;;;;;;37.35;29.77;;;;;;;;;;5013327;28;20464;-90
2021/10/02 07:03:22;;;;;;;44.20;32.63;;;;;;;;;;5031397;28;20022;-90
2021/10/02 07:05:47;;;;;;;47.38;34.58;;;;;;;;;;5013417;28;21099;-90
2021/10/02 07:08:14;;;;;;;49.20;32.47;;;;;;;;;;5030569;28;20504;-91
2021/10/02 07:10:39;;;;;;;45.75;33.22;;;;;;;;;;5013224;28;20501;-91
2021/10/02 07:13:05;;;;;;;41.38;31.92;;;;;;;;;;5031914;28;20096;-91
2021/10/02 07:15:30;;;;;;;34.25;30.25;;;;;;;;;;5013640;28;20064;-90
2021/10/02 07:17:56;;;;;;;34.43;29.33;;;;;;;;;;5035093;28;20500;-91
2021/10/02 07:20:25;;;;;;;38.60;31.65;;;;;;;;;;5014813;28;20288;-90
2021/10/02 07:22:51;;;;;;;32.85;28.90;;;;;;;;;;5031147;28;20014;-91
2021/10/02 07:25:17;;;;;;;40.28;31.63;;;;;;;;;;5031240;28;20649;-91
2021/10/02 07:27:43;;;;;;;33.53;27.63;;;;;;;;;;5013587;28;20021;-90
2021/10/02 07:30:09;;;;;;;39.55;32.08;;;;;;;;;;5013416;28;20025;-90
2021/10/02 07:32:34;;;;;;;37.63;29.90;;;;;;;;;;5012252;28;20024;-90
2021/10/02 07:34:59;;;;;;;42.67;31.00;;;;;;;;;;5031174;28;20421;-91
2021/10/02 07:37:25;;;;;;;41.90;30.08;;;;;;;;;;5013141;28;20092;-91
2021/10/02 07:39:50;;;;;;;33.08;27.48;;;;;;;;;;5013061;28;20028;-90
2021/10/02 07:42:17;;;;;;;28.63;25.55;;;;;;;;;;5013306;28;20021;-90
2021/10/02 07:44:43;;;;;;;31.25;26.13;;;;;;;;;;5031024;28;20022;-90
2021/10/02 07:47:08;;;;;;;32.80;25.40;;;;;;;;;;5013030;28;20095;-90
2021/10/02 07:49:34;;;;;;;32.65;27.50;;;;;;;;;;5030416;28;20029;-90
2021/10/02 07:52:00;;;;;;;29.13;22.33;;;;;;;;;;5012665;28;20628;-90
2021/10/02 07:54:25;;;;;;;44.88;32.50;;;;;;;;;;5030272;28;20029;-90
2021/10/02 07:56:50;;;;;;;30.90;24.67;;;;;;;;;;5030796;28;20914;-90
2021/10/02 07:59:16;;;;;;;23.67;21.10;;;;;;;;;;5016230;28;20503;-90
2021/10/02 08:26:05;;;;;;;32.00;25.10;;;;;;;;;;5116943;22;20053;-89
2021/10/02 08:28:32;;;;;;;35.10;27.20;;;;;;;;;;5055179;28;20028;-89
2021/10/02 08:31:10;;;;;;;29.52;25.58;;;;;;;;;;5131315;22;20048;-89
2021/10/02 08:33:37;;;;;;;29.23;25.25;;;;;;;;;;4988928;28;20043;-89
2021/10/02 08:36:05;;;;;;;30.92;23.25;;;;;;;;;;5010415;28;20026;-90
2021/10/02 08:46:57;;;;;;;27.73;21.00;;;;;;;;;;5033006;28;20119;-89
2021/10/02 08:49:34;;;;;;;24.10;21.38;;;;;;;;;;5032896;28;20033;-89
2021/10/02 08:52:01;;;;;;;28.67;22.25;;;;;;;;;;5098353;22;20068;-88
2021/10/02 08:54:31;;;;;;;31.50;23.95;;;;;;;;;;5066680;28;20058;-89
2021/10/02 08:57:02;;;;;;;29.50;22.92;;;;;;;;;;5202416;22;20060;-89
2021/10/02 08:59:36;;;;;;;30.63;22.00;;;;;;;;;;5073441;28;20063;-89
2021/10/02 09:30:17;;;;;;;22.85;18.95;;;;;;;;;;5052390;22;20048;-90
2021/10/02 09:32:45;;;;;;;27.50;20.67;;;;;;;;;;5053642;28;20116;-89
2021/10/02 09:35:19;;;;;;;28.15;20.73;;;;;;;;;;5054179;28;20028;-89
2021/10/02 09:37:46;;;;;;;20.92;17.98;;;;;;;;;;5053675;28;20016;-89
2021/10/02 09:40:17;;;;;;;23.30;19.85;;;;;;;;;;5053987;28;20051;-89
2021/10/02 09:42:53;;;;;;;20.08;17.45;;;;;;;;;;5054420;28;20824;-89
2021/10/02 09:45:20;;;;;;;21.30;17.58;;;;;;;;;;5054338;28;20059;-89
2021/10/02 09:47:48;;;;;;;23.15;17.95;;;;;;;;;;5055398;28;20025;-89
2021/10/02 09:50:15;;;;;;;23.83;16.92;;;;;;;;;;5053962;28;20028;-89
2021/10/02 09:52:42;;;;;;;18.83;15.23;;;;;;;;;;5040899;28;20063;-89
2021/10/02 09:55:24;;;;;;;20.33;17.23;;;;;;;;;;5052258;28;20047;-89
2021/10/02 09:57:50;;;;;;;19.90;17.80;;;;;;;;;;5034157;28;20147;-89
2021/10/02 10:00:17;;;;;;;22.30;17.42;;;;;;;;;;5052433;28;20024;-89
2021/10/02 10:02:44;;;;;;;24.23;17.75;;;;;;;;;;5051416;28;20428;-88
2021/10/02 10:05:11;;;;;;;21.40;17.55;;;;;;;;;;5054622;28;20055;-89
2021/10/02 10:10:17;;;;;;;18.40;16.42;;;;;;;;;;1486239;22;21421;-88
2021/10/02 10:12:45;;;;;;;17.15;15.38;;;;;;;;;;5028316;28;20247;-89
2021/10/02 10:15:31;;;;;;;16.20;14.50;;;;;;;;;;5030144;28;20037;-89
2021/10/02 10:17:59;;;;;;;18.55;16.70;;;;;;;;;;5029995;28;20025;-89
2021/10/02 10:20:29;;;;;;;18.67;16.15;;;;;;;;;;5031945;28;20500;-89
2021/10/02 10:23:00;;;;;;;16.55;14.90;;;;;;;;;;5030390;28;20036;-89
2021/10/02 10:25:26;;;;;;;17.33;15.38;;;;;;;;;;5030223;28;20064;-89
2021/10/02 10:27:52;;;;;;;18.85;16.42;;;;;;;;;;5013681;28;20025;-89
2021/10/02 10:30:21;;;;;;;16.77;14.00;;;;;;;;;;5030343;28;20032;-89
2021/10/02 10:33:04;;;;;;;18.73;14.18;;;;;;;;;;5030074;28;20032;-89
2021/10/02 10:35:36;;;;;;;15.73;13.43;;;;;;;;;;5030508;28;20075;-89
2021/10/02 10:38:04;;;;;;;13.65;12.27;;;;;;;;;;5032193;28;20385;-89
2021/10/02 10:40:57;;;;;;;14.98;12.15;;;;;;;;;;1970781;22;22075;-88
2021/10/02 10:46:24;;;;;;;13.23;11.90;;;;;;;;;;5003186;28;20565;-89
2021/10/02 10:48:50;;;;;;;13.93;12.50;;;;;;;;;;4989866;28;20045;-89
2021/10/02 10:53:50;;;;;;;12.88;11.65;;;;;;;;;;5095781;22;20479;-89
2021/10/02 10:56:17;;;;;;;14.48;12.00;;;;;;;;;;5054487;28;20032;-89
2021/10/02 10:58:43;;;;;;;12.23;11.02;;;;;;;;;;5052119;28;20032;-89
2021/10/02 11:01:10;;;;;;;13.30;11.30;;;;;;;;;;5032687;28;20029;-89
2021/10/02 11:03:36;;;;;;;14.25;11.18;;;;;;;;;;5050225;28;20024;-89
2021/10/02 11:06:02;;;;;;;12.95;11.05;;;;;;;;;;5032473;28;20529;-89
2021/10/02 11:08:47;;;;;;;11.55;10.50;;;;;;;;;;5032368;28;20025;-90
2021/10/02 11:13:46;;;;;;;13.00;11.60;;;;;;;;;;5033453;28;20057;-89
2021/10/02 11:16:30;;;;;;;13.80;11.25;;;;;;;;;;5012637;28;20838;-89
2021/10/02 11:18:55;;;;;;;14.05;10.13;;;;;;;;;;5030805;28;20025;-89
2021/10/02 11:21:21;;;;;;;13.73;11.87;;;;;;;;;;5030589;28;20075;-89
2021/10/02 11:24:03;;;;;;;13.10;11.77;;;;;;;;;;5012764;28;20461;-89
2021/10/02 11:26:36;;;;;;;13.52;11.18;;;;;;;;;;5013188;28;20021;-89
2021/10/02 11:29:02;;;;;;;12.25;9.90;;;;;;;;;;5013229;28;20060;-89
2021/10/02 11:31:29;;;;;;;12.15;9.93;;;;;;;;;;5014319;28;20057;-89
2021/10/02 11:33:56;;;;;;;12.88;10.73;;;;;;;;;;5016561;28;20120;-88
2021/10/02 11:36:30;;;;;;;11.70;10.30;;;;;;;;;;5018201;28;20030;-89
2021/10/02 11:39:11;;;;;;;12.00;10.57;;;;;;;;;;5016313;28;20033;-89
2021/10/02 11:41:37;;;;;;;14.77;10.43;;;;;;;;;;5015422;28;20018;-89
2021/10/02 11:44:03;;;;;;;12.27;10.43;;;;;;;;;;5034296;28;20049;-89
2021/10/02 11:46:28;;;;;;;11.48;9.82;;;;;;;;;;5034142;28;20060;-89
2021/10/02 11:48:53;;;;;;;13.70;11.55;;;;;;;;;;5016453;28;20111;-89
2021/10/02 11:51:24;;;;;;;16.05;10.88;;;;;;;;;;5016386;28;20033;-89
2021/10/02 11:53:51;;;;;;;12.05;10.85;;;;;;;;;;5056324;23;20049;-87
2021/10/02 11:56:20;;;;;;;10.85;9.65;;;;;;;;;;5036332;28;20025;-88
2021/10/02 11:58:46;;;;;;;9.73;8.73;;;;;;;;;;5037210;28;20384;-88
2021/10/02 12:01:16;;;;;;;11.88;9.45;;;;;;;;;;5036146;28;20017;-89
2021/10/02 12:03:42;;;;;;;11.38;8.95;;;;;;;;;;5036273;28;20116;-89
2021/10/02 12:06:09;;;;;;;11.53;9.20;;;;;;;;;;5035739;28;20133;-89
2021/10/02 12:11:17;;;;;;;10.50;7.68;;;;;;;;;;2538940;22;20297;-89
2021/10/02 12:14:08;;;;;;;8.05;7.25;;;;;;;;;;4322920;22;20013;-88
2021/10/02 12:24:22;;;;;;;13.00;6.47;;;;;;;;;;5032398;28;20509;-88
2021/10/02 12:26:53;;;;;;;8.23;5.47;;;;;;;;;;5018381;28;20026;-88
2021/10/02 12:29:20;;;;;;;12.35;7.07;;;;;;;;;;5237133;22;20075;-89
2021/10/02 12:31:47;;;;;;;11.70;7.30;;;;;;;;;;5072848;28;20107;-89
2021/10/02 12:34:19;;;;;;;8.30;6.95;;;;;;;;;;5073494;28;20020;-89
2021/10/02 12:36:50;;;;;;;10.00;7.00;;;;;;;;;;5040761;22;20057;-88
2021/10/02 12:39:21;;;;;;;8.95;6.78;;;;;;;;;;5032103;28;20025;-89
2021/10/02 12:41:47;;;;;;;8.40;7.57;;;;;;;;;;5030910;28;20140;-89
2021/10/02 12:44:16;;;;;;;9.63;8.57;;;;;;;;;;5031365;28;20108;-89
2021/10/02 12:46:42;;;;;;;10.75;9.23;;;;;;;;;;5033586;28;20346;-89
2021/10/02 12:49:07;;;;;;;12.77;8.75;;;;;;;;;;5032540;28;20092;-90
2021/10/02 12:51:32;;;;;;;12.00;7.88;;;;;;;;;;5031813;28;20017;-89
2021/10/02 12:53:58;;;;;;;12.27;9.32;;;;;;;;;;5031837;28;20428;-89
2021/10/02 12:56:24;;;;;;;9.73;8.13;;;;;;;;;;5031255;28;20389;-89
2021/10/02 12:58:53;;;;;;;14.25;10.60;;;;;;;;;;5032274;28;20025;-89
2021/10/02 13:01:20;;;;;;;11.27;9.52;;;;;;;;;;5045358;28;20021;-90
2021/10/02 13:03:45;;;;;;;14.85;9.77;;;;;;;;;;5051974;28;20017;-89
2021/10/02 13:06:10;;;;;;;11.87;8.83;;;;;;;;;;5169771;22;20056;-89
2021/10/02 13:08:36;;;;;;;12.77;9.90;;;;;;;;;;5015445;28;20061;-89
2021/10/02 13:11:01;;;;;;;12.75;10.13;;;;;;;;;;5032283;28;20745;-89
2021/10/02 13:13:26;;;;;;;13.45;10.80;;;;;;;;;;5032929;28;20552;-89
2021/10/02 13:15:52;;;;;;;13.67;10.57;;;;;;;;;;5123248;22;20060;-89
2021/10/02 13:18:23;;;;;;;13.93;11.23;;;;;;;;;;5051719;28;20745;-89
2021/10/02 13:20:56;;;;;;;16.00;10.63;;;;;;;;;;5035166;28;20025;-89
2021/10/02 13:23:32;;;;;;;13.75;10.55;;;;;;;;;;5052309;28;20664;-88
2021/10/02 13:25:59;;;;;;;14.30;9.80;;;;;;;;;;5052314;28;20017;-88
2021/10/02 13:28:24;;;;;;;13.07;9.52;;;;;;;;;;5038624;23;20053;-87
2021/10/02 13:30:50;;;;;;;13.15;9.05;;;;;;;;;;5016839;28;20022;-88
2021/10/02 13:33:16;;;;;;;12.77;9.55;;;;;;;;;;5017790;28;20050;-88
2021/10/02 13:35:46;;;;;;;16.08;9.27;;;;;;;;;;4994862;28;20603;-88
2021/10/02 13:38:11;;;;;;;12.00;9.35;;;;;;;;;;4994727;28;20068;-88
2021/10/02 13:40:46;;;;;;;10.98;8.25;;;;;;;;;;4994527;28;20034;-88
2021/10/02 13:43:12;;;;;;;9.65;8.35;;;;;;;;;;4994764;28;20446;-87
2021/10/02 13:45:42;;;;;;;8.85;7.68;;;;;;;;;;4995134;28;20080;-88
2021/10/02 13:48:11;;;;;;;13.07;7.72;;;;;;;;;;4994147;28;20065;-87
2021/10/02 13:50:37;;;;;;;11.80;7.78;;;;;;;;;;5011801;28;20057;-88
2021/10/02 13:53:03;;;;;;;13.18;8.63;;;;;;;;;;5011955;28;20052;-88
2021/10/02 13:55:29;;;;;;;14.85;7.53;;;;;;;;;;5012504;28;20075;-88
2021/10/02 13:57:55;;;;;;;11.43;6.93;;;;;;;;;;4994579;28;20115;-88
2021/10/02 14:00:21;;;;;;;13.38;5.60;;;;;;;;;;5015249;28;20629;-88
2021/10/02 14:02:46;;;;;;;11.55;6.25;;;;;;;;;;4997538;28;20025;-88
2021/10/02 14:05:12;;;;;;;9.80;5.90;;;;;;;;;;4996076;28;20046;-88
2021/10/02 14:07:37;;;;;;;14.35;6.20;;;;;;;;;;5013381;28;20030;-88
2021/10/02 14:10:03;;;;;;;11.07;5.53;;;;;;;;;;4994654;28;20079;-88
2021/10/02 14:12:28;;;;;;;9.52;6.03;;;;;;;;;;4996847;28;20034;-88
2021/10/02 14:14:54;;;;;;;10.43;5.73;;;;;;;;;;5012093;28;20053;-88
2021/10/02 14:17:19;;;;;;;8.82;5.78;;;;;;;;;;4994105;28;20363;-88
2021/10/02 14:19:44;;;;;;;13.77;6.25;;;;;;;;;;4993825;28;20041;-88
2021/10/02 14:22:10;;;;;;;9.18;5.70;;;;;;;;;;4994006;28;20014;-88
2021/10/02 14:24:35;;;;;;;10.77;5.82;;;;;;;;;;4993949;28;20021;-88
2021/10/02 14:27:00;;;;;;;11.15;6.13;;;;;;;;;;4993774;28;20508;-88
2021/10/02 14:29:25;;;;;;;7.47;6.25;;;;;;;;;;5012477;28;20033;-88
2021/10/02 14:31:51;;;;;;;10.45;6.25;;;;;;;;;;5011481;28;20025;-88
2021/10/02 14:34:16;;;;;;;10.82;7.38;;;;;;;;;;4994015;28;20025;-88
2021/10/02 14:36:42;;;;;;;13.40;6.10;;;;;;;;;;4993868;28;20145;-88
2021/10/02 14:39:07;;;;;;;10.27;5.80;;;;;;;;;;5011528;28;20057;-88
2021/10/02 14:41:33;;;;;;;8.85;5.60;;;;;;;;;;4996866;28;20033;-88
2021/10/02 14:43:59;;;;;;;9.57;6.47;;;;;;;;;;5012373;28;20112;-88
2021/10/02 14:46:24;;;;;;;13.40;6.10;;;;;;;;;;5013485;28;20017;-88
2021/10/02 14:48:50;;;;;;;11.15;5.80;;;;;;;;;;5013026;28;20025;-88
2021/10/02 14:51:16;;;;;;;9.68;5.18;;;;;;;;;;5013051;28;20018;-88
2021/10/02 14:53:42;;;;;;;13.10;5.68;;;;;;;;;;5013011;28;20021;-88
2021/10/02 14:56:07;;;;;;;10.52;5.78;;;;;;;;;;5031153;28;20048;-88
2021/10/02 14:58:34;;;;;;;9.30;5.22;;;;;;;;;;5030878;28;20022;-88
2021/10/02 15:00:59;;;;;;;8.55;5.10;;;;;;;;;;4994425;28;20111;-88
2021/10/02 15:03:25;;;;;;;7.40;5.32;;;;;;;;;;4993941;28;20036;-88
2021/10/02 15:05:52;;;;;;;7.80;4.80;;;;;;;;;;5010514;28;20098;-88
2021/10/02 15:08:17;;;;;;;9.00;5.32;;;;;;;;;;4993427;28;20048;-88
2021/10/02 15:10:42;;;;;;;8.60;5.85;;;;;;;;;;5011275;28;20476;-88
2021/10/02 15:13:08;;;;;;;9.88;5.28;;;;;;;;;;4993587;28;20022;-88
2021/10/02 15:15:33;;;;;;;5.85;5.13;;;;;;;;;;4994055;28;20069;-88
2021/10/02 15:17:59;;;;;;;8.35;5.07;;;;;;;;;;4993352;28;20026;-88
2021/10/02 15:20:24;;;;;;;9.03;4.83;;;;;;;;;;4993495;28;20026;-88
2021/10/02 15:22:51;;;;;;;8.05;4.80;;;;;;;;;;4993460;28;20261;-88
2021/10/02 15:25:16;;;;;;;7.32;4.55;;;;;;;;;;5010942;28;20033;-88
2021/10/02 15:27:44;;;;;;;8.65;4.18;;;;;;;;;;5010504;28;20084;-88
2021/10/02 15:30:09;;;;;;;7.53;4.28;;;;;;;;;;5011016;28;20478;-88
2021/10/02 15:32:34;;;;;;;10.55;4.82;;;;;;;;;;4993011;28;20036;-88
2021/10/02 15:35:00;;;;;;;7.97;4.37;;;;;;;;;;4993703;28;20065;-88
2021/10/02 15:37:25;;;;;;;9.50;5.20;;;;;;;;;;4993349;28;20824;-88
2021/10/02 15:39:52;;;;;;;10.00;4.50;;;;;;;;;;5010399;28;20030;-88
2021/10/02 15:42:18;;;;;;;10.93;5.00;;;;;;;;;;5010752;28;20033;-88
2021/10/02 15:44:48;;;;;;;11.07;5.00;;;;;;;;;;4993086;28;20022;-88
2021/10/02 15:47:18;;;;;;;6.38;4.63;;;;;;;;;;5075543;23;20052;-88
2021/10/02 15:49:43;;;;;;;12.70;5.30;;;;;;;;;;5052690;28;20032;-88
2021/10/02 15:52:10;;;;;;;9.95;4.70;;;;;;;;;;5052669;28;20434;-88
2021/10/02 15:54:35;;;;;;;7.97;4.45;;;;;;;;;;5070725;28;20111;-88
2021/10/02 15:57:02;;;;;;;7.00;4.45;;;;;;;;;;5066883;28;20108;-88
2021/10/02 15:59:29;;;;;;;11.38;5.07;;;;;;;;;;5048980;28;20025;-87
2021/10/02 16:01:56;;;;;;;11.07;5.60;;;;;;;;;;5049293;28;20025;-88
2021/10/02 16:04:30;;;;;;;10.55;5.13;;;;;;;;;;5049289;28;20024;-88
2021/10/02 16:06:57;;;;;;;12.05;5.32;;;;;;;;;;5050444;28;20056;-88
2021/10/02 16:09:23;;;;;;;9.55;5.07;;;;;;;;;;5050462;28;20112;-88
2021/10/02 16:11:52;;;;;;;8.52;5.65;;;;;;;;;;5050132;28;20119;-87
2021/10/02 16:14:19;;;;;;;8.15;5.60;;;;;;;;;;5044369;28;20036;-87
2021/10/02 16:16:45;;;;;;;8.23;5.70;;;;;;;;;;5047208;28;20024;-87
2021/10/02 16:19:12;;;;;;;10.00;6.15;;;;;;;;;;5045260;28;20112;-88
2021/10/02 16:21:37;;;;;;;9.23;5.47;;;;;;;;;;5052339;28;20027;-88
2021/10/02 16:24:03;;;;;;;14.32;5.90;;;;;;;;;;5052801;28;20029;-88
2021/10/02 16:26:29;;;;;;;16.65;6.47;;;;;;;;;;5052448;28;20017;-87
2021/10/02 16:28:58;;;;;;;8.60;5.65;;;;;;;;;;5068640;28;20492;-88
2021/10/02 16:31:23;;;;;;;8.13;6.07;;;;;;;;;;5073406;28;20020;-88
2021/10/02 16:33:54;;;;;;;9.15;6.78;;;;;;;;;;5055133;28;20027;-88
2021/10/02 16:36:19;;;;;;;13.10;7.32;;;;;;;;;;5055497;28;20029;-88
2021/10/02 16:38:45;;;;;;;10.32;6.22;;;;;;;;;;5073640;28;20749;-88